Time;durP1;ratioP1;P1;durP2;ratioP2;P2;SDS_P1;SDS_P2;PMS_P1;PMS_P2;Temp;Humidity;BMP_temperature;BMP_pressure;BME280_temperature;BME280_humidity;BME280_pressure;Samples;Min_cycle;Max_cycle;Signal;HPM_P1;HPM_P2
2021/11/17 02:26:22;;;;;;;10.20;6.28;;;;;;;;;;5061533;28;20712;-72
2021/11/17 02:28:58;;;;;;;8.38;5.72;;;;;;;;;;5067385;28;20285;-72
2021/11/17 02:31:36;;;;;;;10.32;6.63;;;;;;;;;;5052564;28;20194;-71
2021/11/17 02:34:12;;;;;;;9.32;6.60;;;;;;;;;;5058735;28;20203;-74
2021/11/17 02:36:48;;;;;;;13.60;8.07;;;;;;;;;;5051135;28;20183;-74
2021/11/17 02:39:25;;;;;;;9.77;6.85;;;;;;;;;;5056464;28;20217;-73
2021/11/17 02:42:03;;;;;;;13.23;7.20;;;;;;;;;;5068287;28;20194;-72
2021/11/17 02:44:37;;;;;;;8.95;6.80;;;;;;;;;;5052780;28;20206;-73
2021/11/17 02:47:11;;;;;;;10.82;8.25;;;;;;;;;;5055075;28;20226;-72
2021/11/17 02:49:45;;;;;;;10.55;7.45;;;;;;;;;;5058891;28;20206;-75
2021/11/17 02:52:24;;;;;;;11.25;7.32;;;;;;;;;;5066662;28;20287;-73
2021/11/17 02:55:00;;;;;;;10.38;7.75;;;;;;;;;;5059163;28;20217;-74
2021/11/17 02:57:38;;;;;;;10.82;7.53;;;;;;;;;;5065074;28;20609;-74
2021/11/17 03:00:23;;;;;;;11.55;8.50;;;;;;;;;;5050429;28;20258;-72
2021/11/17 03:02:57;;;;;;;11.77;7.93;;;;;;;;;;5053029;28;20628;-74
2021/11/17 03:05:37;;;;;;;9.15;6.50;;;;;;;;;;5061892;28;20190;-71
2021/11/17 03:08:12;;;;;;;11.55;7.47;;;;;;;;;;5062001;28;20240;-72
2021/11/17 03:10:49;;;;;;;11.13;7.45;;;;;;;;;;5058273;28;20193;-71
2021/11/17 03:13:24;;;;;;;14.45;8.20;;;;;;;;;;5057669;28;20217;-71
2021/11/17 03:16:00;;;;;;;12.48;7.53;;;;;;;;;;5062962;28;20604;-71
2021/11/17 03:18:33;;;;;;;13.05;8.73;;;;;;;;;;5063349;28;20205;-71
2021/11/17 03:21:10;;;;;;;13.27;7.07;;;;;;;;;;5067136;28;20229;-72
2021/11/17 03:23:44;;;;;;;10.73;7.32;;;;;;;;;;5062227;28;20191;-71
2021/11/17 03:26:17;;;;;;;9.63;7.68;;;;;;;;;;5052513;28;20198;-72
2021/11/17 03:28:55;;;;;;;11.63;7.85;;;;;;;;;;5063426;28;20209;-71
2021/11/17 03:31:31;;;;;;;9.90;7.10;;;;;;;;;;5057695;28;20197;-72
2021/11/17 03:34:05;;;;;;;10.98;7.82;;;;;;;;;;5051229;28;20202;-73
2021/11/17 03:36:47;;;;;;;10.05;7.57;;;;;;;;;;5053941;28;20649;-73
2021/11/17 03:39:33;;;;;;;9.90;8.32;;;;;;;;;;5057581;28;20701;-74
2021/11/17 03:42:10;;;;;;;8.10;6.05;;;;;;;;;;5068493;28;20205;-72
2021/11/17 03:45:05;;;;;;;11.18;7.53;;;;;;;;;;5063036;28;20205;-71
2021/11/17 03:47:41;;;;;;;14.55;7.95;;;;;;;;;;5071727;28;20210;-72
2021/11/17 03:50:18;;;;;;;11.85;7.22;;;;;;;;;;5059641;28;20245;-72
2021/11/17 03:52:52;;;;;;;10.52;6.65;;;;;;;;;;5062891;28;20198;-72
2021/11/17 03:55:29;;;;;;;12.75;8.38;;;;;;;;;;5068253;28;20289;-73
2021/11/17 03:58:02;;;;;;;9.40;6.35;;;;;;;;;;5065232;28;20236;-71
2021/11/17 04:00:47;;;;;;;12.93;9.88;;;;;;;;;;5061789;28;20213;-71
2021/11/17 04:03:29;;;;;;;11.85;7.13;;;;;;;;;;5066417;28;20194;-71
2021/11/17 04:06:03;;;;;;;8.27;6.88;;;;;;;;;;5033795;28;20236;-71
2021/11/17 04:08:48;;;;;;;9.82;7.03;;;;;;;;;;5071159;28;20202;-71
2021/11/17 04:11:21;;;;;;;14.02;8.90;;;;;;;;;;5058398;28;20194;-74
2021/11/17 04:13:52;;;;;;;12.40;8.48;;;;;;;;;;5066012;28;20195;-72
2021/11/17 04:16:32;;;;;;;12.50;7.40;;;;;;;;;;5064792;28;20217;-71
2021/11/17 04:19:06;;;;;;;11.55;7.53;;;;;;;;;;5067569;28;20194;-73
2021/11/17 04:21:41;;;;;;;9.93;8.63;;;;;;;;;;5053492;28;20202;-73
2021/11/17 04:24:24;;;;;;;14.18;7.50;;;;;;;;;;5053077;28;20205;-72
2021/11/17 04:26:57;;;;;;;12.90;7.38;;;;;;;;;;5053643;28;20233;-72
2021/11/17 04:29:39;;;;;;;11.55;8.00;;;;;;;;;;5056591;28;20201;-72
2021/11/17 04:32:19;;;;;;;12.35;7.97;;;;;;;;;;5065777;28;20194;-71
2021/11/17 04:35:03;;;;;;;11.00;8.80;;;;;;;;;;5064379;28;20734;-71
2021/11/17 04:37:48;;;;;;;14.07;8.88;;;;;;;;;;5052867;28;20206;-71
2021/11/17 04:40:23;;;;;;;12.55;8.57;;;;;;;;;;5052053;28;20539;-71
2021/11/17 04:42:59;;;;;;;12.40;8.20;;;;;;;;;;5060005;28;20198;-72
2021/11/17 04:45:32;;;;;;;10.55;7.70;;;;;;;;;;5067945;28;20583;-73
2021/11/17 04:48:06;;;;;;;11.18;8.40;;;;;;;;;;5057766;28;20645;-73
2021/11/17 04:50:41;;;;;;;17.60;9.77;;;;;;;;;;5069213;28;20192;-74
2021/11/17 04:53:16;;;;;;;9.95;7.57;;;;;;;;;;5068778;28;20650;-73
2021/11/17 04:55:59;;;;;;;14.35;9.43;;;;;;;;;;5062691;28;20193;-74
2021/11/17 04:58:32;;;;;;;12.40;8.35;;;;;;;;;;5062649;28;20206;-74
2021/11/17 05:01:15;;;;;;;9.73;6.47;;;;;;;;;;5062437;28;20406;-72
2021/11/17 05:03:48;;;;;;;13.95;9.38;;;;;;;;;;5055134;28;20203;-73
2021/11/17 05:06:21;;;;;;;10.38;7.57;;;;;;;;;;5058246;28;20183;-73
2021/11/17 05:08:54;;;;;;;12.02;7.63;;;;;;;;;;5066485;28;20205;-72
2021/11/17 05:11:28;;;;;;;17.10;8.93;;;;;;;;;;5060890;28;20197;-72
2021/11/17 05:13:59;;;;;;;13.45;8.88;;;;;;;;;;5065537;28;20201;-73
2021/11/17 05:16:32;;;;;;;13.55;8.43;;;;;;;;;;5068002;28;20190;-72
2021/11/17 05:19:02;;;;;;;11.20;7.22;;;;;;;;;;5054728;28;20202;-73
2021/11/17 05:21:36;;;;;;;14.93;8.75;;;;;;;;;;5063814;28;20207;-72
2021/11/17 05:24:11;;;;;;;14.38;9.05;;;;;;;;;;5052282;28;20202;-72
2021/11/17 05:26:44;;;;;;;12.70;9.43;;;;;;;;;;5057986;28;20212;-72
2021/11/17 05:29:18;;;;;;;12.82;8.70;;;;;;;;;;5059324;28;20373;-71
2021/11/17 05:31:54;;;;;;;12.98;9.38;;;;;;;;;;5072082;28;20190;-72
2021/11/17 05:34:31;;;;;;;10.07;8.25;;;;;;;;;;5060130;28;20209;-72
2021/11/17 05:37:04;;;;;;;12.98;7.82;;;;;;;;;;5062375;28;20678;-71
2021/11/17 05:39:39;;;;;;;12.38;8.77;;;;;;;;;;5064596;28;20226;-72
2021/11/17 05:42:12;;;;;;;12.60;7.80;;;;;;;;;;5065434;28;20194;-71
2021/11/17 05:44:45;;;;;;;13.20;8.20;;;;;;;;;;5052417;28;20203;-72
2021/11/17 05:47:20;;;;;;;11.20;7.53;;;;;;;;;;5058106;28;20259;-74
2021/11/17 05:49:52;;;;;;;14.20;9.18;;;;;;;;;;5058100;28;20199;-75
2021/11/17 05:52:34;;;;;;;13.05;9.07;;;;;;;;;;5058075;28;20199;-75
2021/11/17 05:55:20;;;;;;;10.38;8.02;;;;;;;;;;5061464;28;20569;-74
2021/11/17 05:57:56;;;;;;;11.98;8.55;;;;;;;;;;5063431;28;20206;-73
2021/11/17 06:00:36;;;;;;;14.13;8.10;;;;;;;;;;5060744;28;20213;-74
2021/11/17 06:03:13;;;;;;;13.00;10.15;;;;;;;;;;5060517;28;20206;-74
2021/11/17 06:05:40;;;;;;;14.55;8.65;;;;;;;;;;5061590;28;20186;-72
2021/11/17 06:08:07;;;;;;;12.20;9.52;;;;;;;;;;5069812;28;20198;-73
2021/11/17 06:10:37;;;;;;;13.98;9.38;;;;;;;;;;5058146;28;20657;-73
2021/11/17 06:13:06;;;;;;;12.13;9.20;;;;;;;;;;5067676;28;20201;-72
2021/11/17 06:15:33;;;;;;;13.75;7.93;;;;;;;;;;5068355;28;20205;-74
2021/11/17 06:18:02;;;;;;;14.80;7.75;;;;;;;;;;5068167;28;20206;-73
2021/11/17 06:20:30;;;;;;;12.80;8.73;;;;;;;;;;5060538;28;20720;-73
2021/11/17 06:22:58;;;;;;;11.63;8.30;;;;;;;;;;5051976;28;20206;-73
2021/11/17 06:25:26;;;;;;;17.60;9.68;;;;;;;;;;5058667;28;20198;-73
2021/11/17 06:27:56;;;;;;;11.85;8.68;;;;;;;;;;5063137;28;20202;-74
2021/11/17 06:30:25;;;;;;;11.23;7.53;;;;;;;;;;5062544;28;20190;-73
2021/11/17 06:32:56;;;;;;;11.18;7.53;;;;;;;;;;5056217;28;20214;-73
2021/11/17 06:35:23;;;;;;;11.27;7.53;;;;;;;;;;5058102;28;20530;-73
2021/11/17 06:37:51;;;;;;;13.90;9.70;;;;;;;;;;5058531;28;20202;-73
2021/11/17 06:40:18;;;;;;;11.80;8.10;;;;;;;;;;5054290;28;20576;-74
2021/11/17 06:42:46;;;;;;;12.60;9.48;;;;;;;;;;5068793;28;20715;-73
2021/11/17 06:45:16;;;;;;;14.35;8.88;;;;;;;;;;5065244;28;20191;-75
2021/11/17 06:47:43;;;;;;;16.20;8.68;;;;;;;;;;5054645;28;20199;-75
2021/11/17 06:50:12;;;;;;;9.60;7.43;;;;;;;;;;5061994;28;20202;-73
2021/11/17 06:52:39;;;;;;;14.57;9.65;;;;;;;;;;5067956;28;20201;-73
2021/11/17 06:55:07;;;;;;;17.08;9.00;;;;;;;;;;5062463;28;20199;-75
2021/11/17 06:57:34;;;;;;;12.70;8.73;;;;;;;;;;5070623;28;20561;-73
2021/11/17 07:00:01;;;;;;;12.27;8.00;;;;;;;;;;5066308;28;20222;-73
2021/11/17 07:02:30;;;;;;;13.18;8.95;;;;;;;;;;5065427;28;20206;-75
2021/11/17 07:04:57;;;;;;;13.07;9.77;;;;;;;;;;5058419;28;20199;-74
2021/11/17 07:07:24;;;;;;;9.95;7.10;;;;;;;;;;5065616;28;20198;-74
2021/11/17 07:09:51;;;;;;;12.93;9.00;;;;;;;;;;5067328;28;20563;-74
2021/11/17 07:12:18;;;;;;;11.55;7.72;;;;;;;;;;5055404;28;20194;-74
2021/11/17 07:14:45;;;;;;;11.18;7.40;;;;;;;;;;5064108;28;20202;-73
2021/11/17 07:17:12;;;;;;;12.15;8.18;;;;;;;;;;5063756;28;20240;-74
2021/11/17 07:19:41;;;;;;;11.18;7.88;;;;;;;;;;5061901;28;20268;-73
2021/11/17 07:22:08;;;;;;;12.00;7.70;;;;;;;;;;5058043;28;20221;-75
2021/11/17 07:24:36;;;;;;;10.60;7.50;;;;;;;;;;5061300;28;20191;-72
2021/11/17 07:27:04;;;;;;;16.95;9.15;;;;;;;;;;5053473;28;20198;-73
2021/11/17 07:29:31;;;;;;;13.52;8.30;;;;;;;;;;5058695;28;20242;-73
2021/11/17 07:31:58;;;;;;;10.82;8.02;;;;;;;;;;5063121;28;20190;-73
2021/11/17 07:34:25;;;;;;;12.85;7.50;;;;;;;;;;5053570;28;20657;-74
2021/11/17 07:36:53;;;;;;;8.98;6.97;;;;;;;;;;5057909;28;20308;-73
2021/11/17 07:39:20;;;;;;;11.73;8.35;;;;;;;;;;5055183;28;20638;-72
2021/11/17 07:41:48;;;;;;;14.18;9.80;;;;;;;;;;5057306;28;20221;-74
2021/11/17 07:44:16;;;;;;;14.27;7.78;;;;;;;;;;5068625;28;20206;-73
2021/11/17 07:46:44;;;;;;;16.05;9.00;;;;;;;;;;5069860;28;20194;-75
2021/11/17 07:49:11;;;;;;;13.45;7.68;;;;;;;;;;5063365;28;20256;-75
2021/11/17 07:51:38;;;;;;;15.73;8.30;;;;;;;;;;5057751;28;20190;-74
2021/11/17 07:54:06;;;;;;;11.68;7.50;;;;;;;;;;5056999;28;20280;-76
2021/11/17 07:56:34;;;;;;;11.73;7.65;;;;;;;;;;5059615;28;20217;-74
2021/11/17 07:59:01;;;;;;;12.80;7.43;;;;;;;;;;5057986;28;20218;-78
2021/11/17 08:01:29;;;;;;;12.55;8.82;;;;;;;;;;5049633;28;20221;-74
2021/11/17 08:03:57;;;;;;;14.15;9.05;;;;;;;;;;5058539;28;20225;-76
2021/11/17 08:06:25;;;;;;;13.93;9.55;;;;;;;;;;5069830;28;20198;-76
2021/11/17 08:08:53;;;;;;;12.48;7.78;;;;;;;;;;5055838;28;20202;-75
2021/11/17 08:11:21;;;;;;;17.70;12.85;;;;;;;;;;5063631;28;20443;-77
2021/11/17 08:13:49;;;;;;;17.30;12.40;;;;;;;;;;5050133;28;20570;-76
2021/11/17 08:16:16;;;;;;;16.38;11.52;;;;;;;;;;5050378;28;20245;-77
2021/11/17 08:18:43;;;;;;;16.88;10.93;;;;;;;;;;5049929;28;20209;-76
2021/11/17 08:21:11;;;;;;;14.48;11.02;;;;;;;;;;5051586;28;20232;-76
2021/11/17 08:23:38;;;;;;;14.07;10.98;;;;;;;;;;5066058;28;20195;-77
2021/11/17 08:26:06;;;;;;;13.50;9.10;;;;;;;;;;5051743;28;20195;-76
2021/11/17 08:28:35;;;;;;;15.52;10.43;;;;;;;;;;5051296;28;20206;-76
2021/11/17 08:31:02;;;;;;;15.15;10.13;;;;;;;;;;5054315;28;20198;-77
2021/11/17 08:33:29;;;;;;;13.57;8.80;;;;;;;;;;5071015;28;20542;-75
2021/11/17 08:35:57;;;;;;;18.13;11.48;;;;;;;;;;5071812;28;20197;-76
2021/11/17 08:38:25;;;;;;;16.92;10.77;;;;;;;;;;5068303;28;20454;-76
2021/11/17 08:40:53;;;;;;;16.05;11.00;;;;;;;;;;5054024;28;20214;-77
2021/11/17 08:43:21;;;;;;;16.40;10.65;;;;;;;;;;5054338;28;20198;-76
2021/11/17 08:45:50;;;;;;;16.75;10.70;;;;;;;;;;5059106;28;20242;-78
2021/11/17 08:48:18;;;;;;;17.65;11.02;;;;;;;;;;5072163;28;20672;-77
2021/11/17 08:50:45;;;;;;;13.43;9.73;;;;;;;;;;5072534;28;20197;-77
2021/11/17 08:53:13;;;;;;;16.67;10.07;;;;;;;;;;5062268;28;20733;-77
2021/11/17 08:55:42;;;;;;;15.98;10.80;;;;;;;;;;5057331;28;20210;-77
2021/11/17 08:58:09;;;;;;;16.20;10.93;;;;;;;;;;5061446;28;20246;-76
2021/11/17 09:00:36;;;;;;;13.80;9.60;;;;;;;;;;5066893;28;20214;-78
2021/11/17 09:03:07;;;;;;;11.70;8.75;;;;;;;;;;5055564;28;20203;-76
2021/11/17 09:05:35;;;;;;;13.20;9.43;;;;;;;;;;5063694;28;20183;-77
2021/11/17 09:08:03;;;;;;;14.60;9.00;;;;;;;;;;5062500;28;20673;-77
2021/11/17 09:10:31;;;;;;;16.45;9.60;;;;;;;;;;5068647;28;20206;-77
2021/11/17 09:12:58;;;;;;;13.10;8.35;;;;;;;;;;5072209;28;20676;-76
2021/11/17 09:15:26;;;;;;;14.65;9.70;;;;;;;;;;5053087;28;20197;-76
2021/11/17 09:17:53;;;;;;;12.20;8.57;;;;;;;;;;5067054;28;20205;-77
2021/11/17 09:20:22;;;;;;;14.23;10.07;;;;;;;;;;5057730;28;20194;-76
2021/11/17 09:22:51;;;;;;;13.32;8.23;;;;;;;;;;5061496;28;20214;-77
2021/11/17 09:25:19;;;;;;;11.73;7.50;;;;;;;;;;5061869;28;20198;-77
2021/11/17 09:27:46;;;;;;;13.10;9.10;;;;;;;;;;5062382;28;20225;-76
2021/11/17 09:30:15;;;;;;;11.45;8.68;;;;;;;;;;5069659;28;20565;-76
2021/11/17 09:32:42;;;;;;;12.10;8.73;;;;;;;;;;5064293;28;20585;-77
2021/11/17 09:35:11;;;;;;;14.93;8.55;;;;;;;;;;5061350;28;20198;-75
2021/11/17 09:37:41;;;;;;;12.75;9.10;;;;;;;;;;5061161;28;20298;-77
2021/11/17 09:40:09;;;;;;;13.43;8.50;;;;;;;;;;5058232;28;20194;-76
2021/11/17 09:42:37;;;;;;;14.73;8.30;;;;;;;;;;5065318;28;20214;-75
2021/11/17 09:45:05;;;;;;;10.60;7.55;;;;;;;;;;5061352;28;20203;-74
2021/11/17 09:47:34;;;;;;;9.80;7.60;;;;;;;;;;5056454;28;20187;-77
2021/11/17 09:50:02;;;;;;;13.10;8.68;;;;;;;;;;5065767;28;20202;-75
2021/11/17 09:52:31;;;;;;;12.38;8.60;;;;;;;;;;5060674;28;20672;-77
2021/11/17 09:55:04;;;;;;;11.68;8.00;;;;;;;;;;5067865;28;20206;-74
2021/11/17 09:57:33;;;;;;;9.73;6.93;;;;;;;;;;5064508;28;20669;-74
2021/11/17 10:00:03;;;;;;;15.25;8.32;;;;;;;;;;5071427;28;20224;-75
2021/11/17 10:02:34;;;;;;;10.70;8.07;;;;;;;;;;5053988;28;20241;-73
2021/11/17 10:05:04;;;;;;;10.95;6.90;;;;;;;;;;5061260;28;20206;-74
2021/11/17 10:08:05;;;;;;;12.15;7.95;;;;;;;;;;5066223;28;20561;-75
2021/11/17 10:13:16;;;;;;;10.45;7.40;;;;;;;;;;5065735;28;20204;-74
2021/11/17 10:15:45;;;;;;;10.82;7.78;;;;;;;;;;5059689;28;20297;-75
2021/11/17 10:18:31;;;;;;;9.88;7.18;;;;;;;;;;5053357;28;20205;-75
2021/11/17 10:21:01;;;;;;;13.00;6.72;;;;;;;;;;5060489;28;20190;-76
2021/11/17 10:23:29;;;;;;;12.00;8.15;;;;;;;;;;5052089;28;20203;-76
2021/11/17 10:25:59;;;;;;;9.27;7.07;;;;;;;;;;5052567;28;20198;-75
2021/11/17 10:28:28;;;;;;;10.85;8.35;;;;;;;;;;5052457;28;20198;-75
2021/11/17 10:30:57;;;;;;;13.02;9.38;;;;;;;;;;5051865;28;20202;-75
2021/11/17 10:33:26;;;;;;;13.25;7.20;;;;;;;;;;5052527;28;20210;-76
2021/11/17 10:36:02;;;;;;;10.48;8.32;;;;;;;;;;5052123;28;20206;-76
2021/11/17 10:38:32;;;;;;;12.15;7.63;;;;;;;;;;5053913;28;20646;-76
2021/11/17 10:41:02;;;;;;;14.27;8.50;;;;;;;;;;5051120;28;20424;-75
2021/11/17 10:43:31;;;;;;;19.52;9.95;;;;;;;;;;5056942;28;20205;-75
2021/11/17 10:46:04;;;;;;;12.75;8.82;;;;;;;;;;5089070;28;20208;-76
2021/11/17 10:48:33;;;;;;;13.32;9.52;;;;;;;;;;5052376;28;20218;-75
2021/11/17 10:51:08;;;;;;;13.55;8.13;;;;;;;;;;5061127;28;20213;-75
2021/11/17 10:53:36;;;;;;;13.23;8.02;;;;;;;;;;5068392;28;20553;-76
2021/11/17 10:56:06;;;;;;;12.45;9.48;;;;;;;;;;5051835;28;20206;-75
2021/11/17 10:58:35;;;;;;;13.43;9.10;;;;;;;;;;5051368;28;20207;-75
2021/11/17 11:01:05;;;;;;;13.13;9.05;;;;;;;;;;5051552;28;20225;-77
2021/11/17 11:03:36;;;;;;;12.43;7.57;;;;;;;;;;5051605;28;20202;-77
2021/11/17 11:06:07;;;;;;;11.25;8.93;;;;;;;;;;5052330;28;20209;-74
2021/11/17 11:08:36;;;;;;;13.93;9.35;;;;;;;;;;5064309;28;20561;-76
2021/11/17 11:11:06;;;;;;;14.07;10.30;;;;;;;;;;5051011;28;20206;-75
2021/11/17 11:13:35;;;;;;;16.67;10.93;;;;;;;;;;5052697;28;20571;-75
2021/11/17 11:16:09;;;;;;;13.60;9.50;;;;;;;;;;5053329;28;20191;-76
2021/11/17 11:18:41;;;;;;;13.68;8.88;;;;;;;;;;5051889;28;20198;-75
2021/11/17 11:21:10;;;;;;;14.10;8.38;;;;;;;;;;5051320;28;20626;-75
2021/11/17 11:23:37;;;;;;;15.15;8.88;;;;;;;;;;5058092;28;20206;-75
2021/11/17 11:26:12;;;;;;;12.85;8.75;;;;;;;;;;5053354;28;20566;-74
2021/11/17 11:28:41;;;;;;;11.48;8.10;;;;;;;;;;5070602;28;20197;-75
2021/11/17 11:31:32;;;;;;;13.13;7.65;;;;;;;;;;5068737;28;20550;-75
2021/11/17 11:34:14;;;;;;;12.27;9.50;;;;;;;;;;5044663;28;20201;-76
2021/11/17 11:36:46;;;;;;;11.60;8.57;;;;;;;;;;5063780;28;20194;-77
2021/11/17 11:39:26;;;;;;;10.07;8.05;;;;;;;;;;5066020;28;20193;-75
2021/11/17 11:42:10;;;;;;;11.95;7.65;;;;;;;;;;5068975;28;20287;-74
2021/11/17 11:44:38;;;;;;;12.23;8.77;;;;;;;;;;5065992;28;20684;-76
2021/11/17 11:47:23;;;;;;;16.85;9.93;;;;;;;;;;5065573;28;20653;-76
2021/11/17 11:49:51;;;;;;;17.00;10.95;;;;;;;;;;5058132;28;20658;-75
2021/11/17 11:52:28;;;;;;;13.30;9.20;;;;;;;;;;5054821;28;20656;-75
2021/11/17 11:55:11;;;;;;;13.18;8.65;;;;;;;;;;5058190;28;20198;-75
2021/11/17 11:57:41;;;;;;;15.23;10.40;;;;;;;;;;5063282;28;20234;-75
2021/11/17 12:00:09;;;;;;;16.90;11.02;;;;;;;;;;5063697;28;20225;-75
2021/11/17 12:02:38;;;;;;;15.00;10.00;;;;;;;;;;5060838;28;20214;-75
2021/11/17 12:05:07;;;;;;;14.45;8.80;;;;;;;;;;5057521;28;20300;-76
2021/11/17 12:07:44;;;;;;;11.65;9.35;;;;;;;;;;5072811;28;20202;-75
2021/11/17 12:10:12;;;;;;;16.55;10.50;;;;;;;;;;5068403;28;20201;-75
2021/11/17 12:12:42;;;;;;;14.23;10.20;;;;;;;;;;5069737;28;20190;-75
2021/11/17 12:15:15;;;;;;;14.63;9.35;;;;;;;;;;5068942;28;20190;-75
2021/11/17 12:17:42;;;;;;;14.43;8.32;;;;;;;;;;5069129;28;20219;-75
2021/11/17 12:20:19;;;;;;;12.98;9.50;;;;;;;;;;5072850;28;20232;-75
2021/11/17 12:22:47;;;;;;;14.38;9.50;;;;;;;;;;5067166;28;20669;-76
2021/11/17 12:25:18;;;;;;;12.75;9.18;;;;;;;;;;5059575;28;20676;-75
2021/11/17 12:27:47;;;;;;;13.82;7.50;;;;;;;;;;5065277;28;20233;-75
2021/11/17 12:30:19;;;;;;;13.60;9.48;;;;;;;;;;5071066;28;20202;-76
2021/11/17 12:32:50;;;;;;;11.48;7.85;;;;;;;;;;5073541;28;20229;-75
2021/11/17 12:35:21;;;;;;;9.73;7.25;;;;;;;;;;5071226;28;20213;-75
2021/11/17 12:37:49;;;;;;;13.10;8.75;;;;;;;;;;5072194;28;20657;-76
2021/11/17 12:40:17;;;;;;;12.23;8.52;;;;;;;;;;5063602;28;20198;-76
2021/11/17 12:42:53;;;;;;;13.00;8.35;;;;;;;;;;5062688;28;20229;-75
2021/11/17 12:45:23;;;;;;;13.90;8.10;;;;;;;;;;5061094;28;20198;-75
2021/11/17 12:47:52;;;;;;;11.68;8.70;;;;;;;;;;5066289;28;20220;-75
2021/11/17 12:50:23;;;;;;;13.52;8.98;;;;;;;;;;5065674;28;20203;-76
2021/11/17 12:52:52;;;;;;;15.63;10.48;;;;;;;;;;5070963;28;20193;-76
2021/11/17 12:55:21;;;;;;;14.55;10.43;;;;;;;;;;5064493;28;20194;-75
2021/11/17 12:57:51;;;;;;;12.90;8.32;;;;;;;;;;5073957;28;20224;-76
2021/11/17 13:00:40;;;;;;;12.85;8.77;;;;;;;;;;5056758;28;20554;-76
2021/11/17 13:03:10;;;;;;;11.25;8.02;;;;;;;;;;5055484;28;20217;-76
2021/11/17 13:05:37;;;;;;;12.32;8.35;;;;;;;;;;5069730;28;20299;-75
2021/11/17 13:08:10;;;;;;;11.00;9.00;;;;;;;;;;5064387;28;20206;-76
2021/11/17 13:10:38;;;;;;;11.52;8.98;;;;;;;;;;5069485;28;20189;-75
2021/11/17 13:13:13;;;;;;;12.93;9.13;;;;;;;;;;5071451;28;20217;-75
2021/11/17 13:15:42;;;;;;;17.83;10.95;;;;;;;;;;5058048;28;20214;-74
2021/11/17 13:18:25;;;;;;;17.73;10.65;;;;;;;;;;5059460;28;20199;-75
2021/11/17 13:20:52;;;;;;;13.52;9.55;;;;;;;;;;5053474;28;20195;-75
2021/11/17 13:23:34;;;;;;;18.17;10.88;;;;;;;;;;5068812;28;20225;-76
2021/11/17 13:26:12;;;;;;;13.88;9.90;;;;;;;;;;5068630;28;20676;-76
2021/11/17 13:28:41;;;;;;;13.48;10.18;;;;;;;;;;5067830;28;20206;-75
2021/11/17 13:31:28;;;;;;;15.15;9.93;;;;;;;;;;5071276;28;20191;-75
2021/11/17 13:33:57;;;;;;;16.83;9.60;;;;;;;;;;5065416;28;20202;-75
2021/11/17 13:36:44;;;;;;;20.90;12.38;;;;;;;;;;5064193;28;20195;-75
2021/11/17 13:39:12;;;;;;;19.48;11.70;;;;;;;;;;5067457;28;20253;-75
2021/11/17 13:41:43;;;;;;;17.60;11.70;;;;;;;;;;5066625;28;20543;-75
2021/11/17 13:44:11;;;;;;;18.48;11.18;;;;;;;;;;5067921;28;20218;-75
2021/11/17 13:46:38;;;;;;;19.08;11.38;;;;;;;;;;5065148;28;20197;-75
2021/11/17 13:49:07;;;;;;;22.73;11.85;;;;;;;;;;5065864;28;20654;-75
2021/11/17 13:51:34;;;;;;;15.75;11.00;;;;;;;;;;5071285;28;20209;-75
2021/11/17 13:54:01;;;;;;;16.25;9.57;;;;;;;;;;5056709;28;20198;-75
2021/11/17 13:56:29;;;;;;;20.75;12.68;;;;;;;;;;5068110;28;20640;-76
2021/11/17 13:58:56;;;;;;;14.27;9.70;;;;;;;;;;5072705;28;20201;-75
2021/11/17 14:01:24;;;;;;;16.98;11.50;;;;;;;;;;5069928;28;20199;-77
2021/11/17 14:03:51;;;;;;;15.88;9.90;;;;;;;;;;5051443;28;20601;-76
2021/11/17 14:06:20;;;;;;;15.65;9.38;;;;;;;;;;5071865;28;20324;-76
2021/11/17 14:08:47;;;;;;;14.23;8.48;;;;;;;;;;5073925;28;20249;-76
2021/11/17 14:11:15;;;;;;;14.05;9.32;;;;;;;;;;5072414;28;20194;-75
2021/11/17 14:13:43;;;;;;;13.13;10.52;;;;;;;;;;5069863;28;20202;-75
2021/11/17 14:16:10;;;;;;;16.10;9.65;;;;;;;;;;5052867;28;20214;-75
2021/11/17 14:18:38;;;;;;;15.38;10.85;;;;;;;;;;5052351;28;20203;-75
2021/11/17 14:21:08;;;;;;;14.38;10.02;;;;;;;;;;5054149;28;20195;-75
2021/11/17 14:23:37;;;;;;;16.08;10.75;;;;;;;;;;5056090;28;20214;-75
2021/11/17 14:26:05;;;;;;;17.35;11.82;;;;;;;;;;5052469;28;20202;-75
2021/11/17 14:28:35;;;;;;;19.00;11.68;;;;;;;;;;5052292;28;20226;-75
2021/11/17 14:31:04;;;;;;;13.57;9.85;;;;;;;;;;5060290;28;20233;-75
2021/11/17 14:33:32;;;;;;;16.52;10.90;;;;;;;;;;5055064;28;20669;-74
2021/11/17 14:36:00;;;;;;;15.70;10.60;;;;;;;;;;5051926;28;20207;-74
2021/11/17 14:38:29;;;;;;;14.85;10.25;;;;;;;;;;5058023;28;20196;-75
2021/11/17 14:40:58;;;;;;;18.33;11.05;;;;;;;;;;5059547;28;20285;-75
2021/11/17 14:43:25;;;;;;;18.88;10.52;;;;;;;;;;5064721;28;20237;-75
2021/11/17 14:45:52;;;;;;;16.10;10.65;;;;;;;;;;5070964;28;20691;-75
2021/11/17 14:48:19;;;;;;;14.93;9.73;;;;;;;;;;5062845;28;20194;-75
2021/11/17 14:50:47;;;;;;;14.73;10.73;;;;;;;;;;5064880;28;20199;-77
2021/11/17 14:53:16;;;;;;;15.80;10.55;;;;;;;;;;5069603;28;20656;-75
2021/11/17 14:55:44;;;;;;;14.85;9.98;;;;;;;;;;5054656;28;20202;-75
2021/11/17 14:58:13;;;;;;;16.05;10.50;;;;;;;;;;5065668;28;20198;-75
2021/11/17 15:00:41;;;;;;;12.93;10.25;;;;;;;;;;5066188;28;20218;-74
2021/11/17 15:03:09;;;;;;;12.73;9.43;;;;;;;;;;5052472;28;20226;-77
2021/11/17 15:05:36;;;;;;;12.38;9.57;;;;;;;;;;5062206;28;20201;-75
2021/11/17 15:08:05;;;;;;;11.73;9.73;;;;;;;;;;5066312;28;20205;-75
2021/11/17 15:10:32;;;;;;;14.15;10.40;;;;;;;;;;5058203;28;20190;-75
2021/11/17 15:13:00;;;;;;;14.73;10.75;;;;;;;;;;5062064;28;20202;-75
2021/11/17 15:15:30;;;;;;;12.57;8.82;;;;;;;;;;5057422;28;20241;-75
2021/11/17 15:17:58;;;;;;;14.90;10.00;;;;;;;;;;5064375;28;20409;-74
2021/11/17 15:20:25;;;;;;;15.52;12.05;;;;;;;;;;5064027;28;20565;-76
2021/11/17 15:22:52;;;;;;;12.20;10.45;;;;;;;;;;5055436;28;20217;-76
2021/11/17 15:25:21;;;;;;;14.43;10.77;;;;;;;;;;5061474;28;20573;-76
2021/11/17 15:27:49;;;;;;;20.05;11.18;;;;;;;;;;5062465;28;20201;-75
2021/11/17 15:30:18;;;;;;;15.98;10.52;;;;;;;;;;5062436;28;20657;-78
2021/11/17 15:32:46;;;;;;;15.63;11.35;;;;;;;;;;5065624;28;20206;-76
2021/11/17 15:35:15;;;;;;;16.75;11.80;;;;;;;;;;5064422;28;20198;-75
2021/11/17 15:37:43;;;;;;;18.05;13.10;;;;;;;;;;5061792;28;20280;-78
2021/11/17 15:40:12;;;;;;;15.52;11.40;;;;;;;;;;5065039;28;20191;-75
2021/11/17 15:42:39;;;;;;;20.55;12.35;;;;;;;;;;5072089;28;20397;-75
2021/11/17 15:45:07;;;;;;;17.23;10.65;;;;;;;;;;5072918;28;20190;-75
2021/11/17 15:47:34;;;;;;;16.05;11.05;;;;;;;;;;5071785;28;20194;-75
2021/11/17 15:50:03;;;;;;;20.45;11.75;;;;;;;;;;5059771;28;20666;-75
2021/11/17 15:52:30;;;;;;;18.95;12.27;;;;;;;;;;5071878;28;20229;-76
2021/11/17 15:54:57;;;;;;;16.42;11.23;;;;;;;;;;5063585;28;20192;-75
2021/11/17 15:57:24;;;;;;;18.05;12.07;;;;;;;;;;5068433;28;20211;-76
2021/11/17 15:59:51;;;;;;;19.38;12.85;;;;;;;;;;5059471;28;20214;-76
2021/11/17 16:02:18;;;;;;;14.80;11.45;;;;;;;;;;5058856;28;20220;-76
2021/11/17 16:04:45;;;;;;;16.80;10.50;;;;;;;;;;5069047;28;20715;-73
2021/11/17 16:07:16;;;;;;;15.30;10.90;;;;;;;;;;5066381;28;20195;-74
2021/11/17 16:09:44;;;;;;;13.60;10.25;;;;;;;;;;5066393;28;20202;-74
2021/11/17 16:12:11;;;;;;;18.15;12.88;;;;;;;;;;5072227;28;20538;-74
2021/11/17 16:14:38;;;;;;;14.43;11.18;;;;;;;;;;5065079;28;20190;-73
2021/11/17 16:17:06;;;;;;;12.82;10.75;;;;;;;;;;5068636;28;20210;-75
2021/11/17 16:19:36;;;;;;;12.80;9.73;;;;;;;;;;5064115;28;20198;-74
2021/11/17 16:22:04;;;;;;;16.98;11.27;;;;;;;;;;5068232;28;20751;-73
2021/11/17 16:27:19;;;;;;;16.60;9.27;;;;;;;;;;5076503;28;20200;-75
2021/11/17 16:29:47;;;;;;;16.80;11.10;;;;;;;;;;5062156;28;20195;-75
2021/11/17 16:32:17;;;;;;;15.15;10.75;;;;;;;;;;5067155;28;20206;-74
2021/11/17 16:34:44;;;;;;;12.95;9.77;;;;;;;;;;5061571;28;20562;-74
2021/11/17 16:37:11;;;;;;;10.70;9.55;;;;;;;;;;5070063;28;20202;-74
2021/11/17 16:39:39;;;;;;;14.70;11.15;;;;;;;;;;5067028;28;20618;-74
2021/11/17 16:42:07;;;;;;;15.23;9.88;;;;;;;;;;5074114;28;20685;-74
2021/11/17 16:44:34;;;;;;;12.35;9.82;;;;;;;;;;5063289;28;20217;-76
2021/11/17 16:47:01;;;;;;;15.43;12.32;;;;;;;;;;5064820;28;20692;-74
2021/11/17 16:49:28;;;;;;;15.13;10.88;;;;;;;;;;5062265;28;20660;-73
2021/11/17 16:52:14;;;;;;;21.90;12.07;;;;;;;;;;5071847;28;20660;-72
2021/11/17 16:54:43;;;;;;;27.33;16.10;;;;;;;;;;5053425;28;20513;-75
2021/11/17 16:57:10;;;;;;;24.75;15.73;;;;;;;;;;5074866;28;20205;-76
2021/11/17 16:59:38;;;;;;;24.73;17.90;;;;;;;;;;5059919;28;20221;-75
2021/11/17 17:02:05;;;;;;;24.60;15.80;;;;;;;;;;5066008;28;20546;-75
2021/11/17 17:04:32;;;;;;;26.50;15.88;;;;;;;;;;5059316;28;20211;-75
2021/11/17 17:07:00;;;;;;;24.33;15.13;;;;;;;;;;5056960;28;20199;-74
2021/11/17 17:09:29;;;;;;;19.90;14.77;;;;;;;;;;5053462;28;20201;-75
2021/11/17 17:11:57;;;;;;;29.50;16.88;;;;;;;;;;5053787;28;20190;-75
2021/11/17 17:14:24;;;;;;;20.13;15.05;;;;;;;;;;5053179;28;20194;-75
2021/11/17 17:16:52;;;;;;;22.40;14.85;;;;;;;;;;5069575;28;20263;-74
2021/11/17 17:19:19;;;;;;;22.15;14.63;;;;;;;;;;5056412;28;20206;-75